createdAt,value
2023-05-04T00:00:21.061Z,7.26
2023-05-04T00:01:20.986Z,7.21
2023-05-04T00:02:20.956Z,7.02
2023-05-04T00:03:20.892Z,6.96
2023-05-04T00:04:20.799Z,6.98
2023-05-04T00:05:20.632Z,7.02
2023-05-04T00:06:20.551Z,6.94
2023-05-04T00:07:20.462Z,6.96
2023-05-04T00:08:20.386Z,6.93
2023-05-04T00:09:20.305Z,6.87
2023-05-04T00:10:20.231Z,6.91
2023-05-04T00:11:20.135Z,6.98
2023-05-04T00:12:20.057Z,6.90
2023-05-04T00:13:19.971Z,6.96
2023-05-04T00:14:19.896Z,6.91
2023-05-04T00:15:19.808Z,6.87
2023-05-04T00:16:19.764Z,6.80
2023-05-04T00:17:19.694Z,6.84
2023-05-04T00:18:19.560Z,6.90
2023-05-04T00:19:19.706Z,6.96
2023-05-04T00:20:19.456Z,6.87
2023-05-04T00:21:19.311Z,6.90
2023-05-04T00:22:19.245Z,6.83
2023-05-04T00:23:19.144Z,6.83
2023-05-04T00:24:19.061Z,6.86
2023-05-04T00:25:18.988Z,6.83
2023-05-04T00:26:18.901Z,6.81
2023-05-04T00:27:18.815Z,6.81
2023-05-04T00:28:18.753Z,6.78
2023-05-04T00:29:18.651Z,6.69
2023-05-04T00:30:18.579Z,6.76
2023-05-04T00:31:18.521Z,6.70
2023-05-04T00:32:18.405Z,6.76
2023-05-04T00:33:18.322Z,6.73
2023-05-04T00:34:18.239Z,6.70
2023-05-04T00:35:18.155Z,6.72
2023-05-04T00:36:18.089Z,6.65
2023-05-04T00:37:17.990Z,6.63
2023-05-04T00:38:17.922Z,6.62
2023-05-04T00:39:17.833Z,6.66
2023-05-04T00:40:17.750Z,6.68
2023-05-04T00:41:17.662Z,6.70
2023-05-04T00:42:17.593Z,6.66
2023-05-04T00:43:17.497Z,6.59
2023-05-04T00:44:17.415Z,6.62
2023-05-04T00:45:17.336Z,6.54
2023-05-04T00:46:17.256Z,6.54
2023-05-04T00:47:17.340Z,6.48
2023-05-04T00:48:17.093Z,6.44
2023-05-04T00:49:17.007Z,6.39
2023-05-04T00:50:16.919Z,6.45
2023-05-04T00:51:16.837Z,6.37
2023-05-04T00:52:16.765Z,6.42
2023-05-04T00:53:16.670Z,6.45
2023-05-04T00:54:16.603Z,6.47
2023-05-04T00:55:16.515Z,6.47
2023-05-04T00:56:16.439Z,6.45
2023-05-04T00:57:16.349Z,6.39
2023-05-04T00:58:16.278Z,6.34
2023-05-04T00:59:16.192Z,6.30
2023-05-04T01:00:16.091Z,6.21
2023-05-04T01:01:16.092Z,6.15
2023-05-04T01:02:15.928Z,6.15
2023-05-04T01:03:15.922Z,6.14
2023-05-04T01:04:15.797Z,6.13
2023-05-04T01:05:15.685Z,6.18
2023-05-04T01:06:15.599Z,6.18
2023-05-04T01:07:15.528Z,6.14
2023-05-04T01:08:15.474Z,6.15
2023-05-04T01:09:15.359Z,6.22
2023-05-04T01:10:15.271Z,6.17
2023-05-04T01:11:15.186Z,6.18
2023-05-04T01:12:15.100Z,6.11
2023-05-04T01:13:15.164Z,6.11
2023-05-04T01:14:14.937Z,6.15
2023-05-04T01:15:14.848Z,6.11
2023-05-04T01:16:14.802Z,6.10
2023-05-04T01:17:14.688Z,6.17
2023-05-04T01:18:14.636Z,6.21
2023-05-04T01:19:14.524Z,6.18
2023-05-04T01:20:14.440Z,6.29
2023-05-04T01:21:14.358Z,6.22
2023-05-04T01:22:14.277Z,6.26
2023-05-04T01:23:14.194Z,6.22
2023-05-04T01:24:14.111Z,6.21
2023-05-04T01:25:14.025Z,6.18
2023-05-04T01:26:13.945Z,6.26
2023-05-04T01:27:13.860Z,6.24
2023-05-04T01:28:13.777Z,6.24
2023-05-04T01:29:13.707Z,6.26
2023-05-04T01:30:13.624Z,6.21
2023-05-04T01:31:13.565Z,6.14
2023-05-04T01:32:13.449Z,6.10
2023-05-04T01:33:13.369Z,6.13
2023-05-04T01:34:13.285Z,6.10
2023-05-04T01:35:13.196Z,6.13
2023-05-04T01:36:13.114Z,6.10
2023-05-04T01:37:13.032Z,6.08
2023-05-04T01:38:12.944Z,6.04
2023-05-04T01:39:12.867Z,6.00
2023-05-04T01:40:12.800Z,5.88
2023-05-04T01:41:12.689Z,5.78
2023-05-04T01:42:12.606Z,5.77
2023-05-04T01:43:12.530Z,5.70
2023-05-04T01:44:12.441Z,5.62
2023-05-04T01:45:12.364Z,5.59
2023-05-04T01:46:12.348Z,5.56
2023-05-04T01:47:12.199Z,5.71
2023-05-04T01:48:12.114Z,5.63
2023-05-04T01:49:12.031Z,5.60
2023-05-04T01:50:11.943Z,5.56
2023-05-04T01:51:11.889Z,5.63
2023-05-04T01:52:11.784Z,5.65
2023-05-04T01:53:11.699Z,5.62
2023-05-04T01:54:11.614Z,5.56
2023-05-04T01:55:11.530Z,5.70
2023-05-04T01:56:11.453Z,5.59
2023-05-04T01:57:11.355Z,5.67
2023-05-04T01:58:11.291Z,5.72
2023-05-04T01:59:11.200Z,5.74
2023-05-04T02:00:11.113Z,5.81
2023-05-04T02:01:11.051Z,5.83
2023-05-04T02:02:10.952Z,5.88
2023-05-04T02:03:10.901Z,5.86
2023-05-04T02:04:10.848Z,5.85
2023-05-04T02:05:10.703Z,5.86
2023-05-04T02:06:10.617Z,5.83
2023-05-04T02:07:10.526Z,5.85
2023-05-04T02:08:10.458Z,5.78
2023-05-04T02:09:10.362Z,5.72
2023-05-04T02:10:10.291Z,5.72
2023-05-04T02:11:10.215Z,5.68
2023-05-04T02:12:10.114Z,5.68
2023-05-04T02:13:10.109Z,5.67
2023-05-04T02:14:09.953Z,5.65
2023-05-04T02:15:09.860Z,5.57
2023-05-04T02:16:09.816Z,5.56
2023-05-04T02:17:09.696Z,5.63
2023-05-04T02:18:09.673Z,5.60
2023-05-04T02:19:09.527Z,5.53
2023-05-04T02:20:09.454Z,5.59
2023-05-04T02:21:09.367Z,5.56
2023-05-04T02:22:09.286Z,5.47
2023-05-04T02:23:09.199Z,5.39
2023-05-04T02:24:09.111Z,5.26
2023-05-04T02:25:09.028Z,5.31
2023-05-04T02:26:08.959Z,5.26
2023-05-04T02:27:08.868Z,5.14
2023-05-04T02:28:08.783Z,5.21
2023-05-04T02:29:08.707Z,5.29
2023-05-04T02:30:08.613Z,5.26
2023-05-04T02:31:08.549Z,5.26
2023-05-04T02:32:08.455Z,5.21
2023-05-04T02:33:08.437Z,5.17
2023-05-04T02:34:08.289Z,5.26
2023-05-04T02:35:08.204Z,5.26
2023-05-04T02:36:08.115Z,5.23
2023-05-04T02:37:08.032Z,5.20
2023-05-04T02:38:07.946Z,5.24
2023-05-04T02:39:07.871Z,5.14
2023-05-04T02:40:07.961Z,5.26
2023-05-04T02:41:07.693Z,5.35
2023-05-04T02:42:07.640Z,5.35
2023-05-04T02:43:07.525Z,5.31
2023-05-04T02:44:07.460Z,5.28
2023-05-04T02:45:07.364Z,5.26
2023-05-04T02:46:07.361Z,5.26
2023-05-04T02:47:07.196Z,5.21
2023-05-04T02:48:07.153Z,5.10
2023-05-04T02:49:07.034Z,5.10
2023-05-04T02:50:07.090Z,5.20
2023-05-04T02:51:06.867Z,5.17
2023-05-04T02:52:06.786Z,5.17
2023-05-04T02:53:06.702Z,5.20
2023-05-04T02:54:06.619Z,5.14
2023-05-04T02:55:06.531Z,5.16
2023-05-04T02:56:06.457Z,5.14
2023-05-04T02:57:06.372Z,5.18
2023-05-04T02:58:06.278Z,5.11
2023-05-04T02:59:06.190Z,5.13
2023-05-04T03:00:06.818Z,5.21
2023-05-04T03:01:06.045Z,5.28
2023-05-04T03:02:05.943Z,5.16
2023-05-04T03:03:05.901Z,5.20
2023-05-04T03:04:05.792Z,5.26
2023-05-04T03:05:05.715Z,5.24
2023-05-04T03:06:05.621Z,5.21
2023-05-04T03:07:05.534Z,5.26
2023-05-04T03:08:05.445Z,5.21
2023-05-04T03:09:05.371Z,5.18
2023-05-04T03:10:05.502Z,5.29
2023-05-04T03:11:05.190Z,5.24
2023-05-04T03:12:05.125Z,5.17
2023-05-04T03:13:05.054Z,5.28
2023-05-04T03:14:04.943Z,5.18
2023-05-04T03:15:04.865Z,5.28
2023-05-04T03:16:04.797Z,5.21
2023-05-04T03:17:04.701Z,5.28
2023-05-04T03:18:04.631Z,5.17
2023-05-04T03:19:04.519Z,5.23
2023-05-04T03:20:04.666Z,5.14
2023-05-04T03:21:04.378Z,5.14
2023-05-04T03:22:04.270Z,5.10
2023-05-04T03:23:04.198Z,5.10
2023-05-04T03:24:04.102Z,5.10
2023-05-04T03:25:04.056Z,4.93
2023-05-04T03:26:03.940Z,4.87
2023-05-04T03:27:03.856Z,4.85
2023-05-04T03:28:03.765Z,4.83
2023-05-04T03:29:03.686Z,4.80
2023-05-04T03:30:03.833Z,4.88
2023-05-04T03:31:03.516Z,4.91
2023-05-04T03:32:03.490Z,4.92
2023-05-04T03:33:03.396Z,4.92
2023-05-04T03:34:03.269Z,4.91
2023-05-04T03:35:04.022Z,5.05
2023-05-04T03:36:03.111Z,5.00
2023-05-04T03:37:03.021Z,4.98
2023-05-04T03:38:02.938Z,5.03
2023-05-04T03:39:02.846Z,5.02
2023-05-04T03:40:02.956Z,5.06
2023-05-04T03:41:02.676Z,5.08
2023-05-04T03:42:02.619Z,5.05
2023-05-04T03:43:02.514Z,5.10
2023-05-04T03:44:02.429Z,5.00
2023-05-04T03:45:04.041Z,5.06
2023-05-04T03:46:02.311Z,5.00
2023-05-04T03:47:02.173Z,4.91
2023-05-04T03:48:02.213Z,4.88
2023-05-04T03:49:02.011Z,4.85
2023-05-04T03:50:02.036Z,4.80
2023-05-04T03:51:01.843Z,4.87
2023-05-04T03:52:01.767Z,4.91
2023-05-04T03:53:01.689Z,4.88
2023-05-04T03:54:01.594Z,4.73
2023-05-04T03:55:01.523Z,4.76
2023-05-04T03:56:01.427Z,4.66
2023-05-04T03:57:01.338Z,4.65
2023-05-04T03:58:01.268Z,4.64
2023-05-04T03:59:01.179Z,4.61
2023-05-04T04:00:01.085Z,4.59
2023-05-04T04:01:01.004Z,4.74
2023-05-04T04:02:00.932Z,4.68
2023-05-04T04:03:00.871Z,4.69
2023-05-04T04:04:00.876Z,4.72
2023-05-04T04:05:00.676Z,4.68
2023-05-04T04:06:00.584Z,4.69
2023-05-04T04:07:00.495Z,4.72
2023-05-04T04:08:00.416Z,4.68
2023-05-04T04:09:00.343Z,4.74
2023-05-04T04:10:00.247Z,4.73
2023-05-04T04:11:00.178Z,4.72
2023-05-04T04:12:00.138Z,4.76
2023-05-04T04:13:00.049Z,4.74
2023-05-04T04:13:59.910Z,4.84
2023-05-04T04:14:59.834Z,4.80
2023-05-04T04:15:59.754Z,4.79
2023-05-04T04:16:59.682Z,4.73
2023-05-04T04:17:59.602Z,4.73
2023-05-04T04:18:59.508Z,4.77
2023-05-04T04:19:59.408Z,4.72
2023-05-04T04:20:59.327Z,4.76
2023-05-04T04:21:59.248Z,4.77
2023-05-04T04:22:59.163Z,4.77
2023-05-04T04:23:59.071Z,4.79
2023-05-04T04:24:58.986Z,4.73
2023-05-04T04:25:58.906Z,4.72
2023-05-04T04:26:58.825Z,4.74
2023-05-04T04:27:58.750Z,4.76
2023-05-04T04:28:58.656Z,4.73
2023-05-04T04:29:58.566Z,4.69
2023-05-04T04:30:58.520Z,4.77
2023-05-04T04:31:58.451Z,4.69
2023-05-04T04:32:58.394Z,4.74
2023-05-04T04:33:58.263Z,4.76
2023-05-04T04:34:58.148Z,4.87
2023-05-04T04:35:58.075Z,4.79
2023-05-04T04:36:57.981Z,4.83
2023-05-04T04:37:57.905Z,4.88
2023-05-04T04:38:57.823Z,4.85
2023-05-04T04:39:57.724Z,4.83
2023-05-04T04:40:57.647Z,4.79
2023-05-04T04:41:57.565Z,4.93
2023-05-04T04:42:57.473Z,4.88
2023-05-04T04:43:57.395Z,4.87
2023-05-04T04:44:57.317Z,4.91
2023-05-04T04:45:57.220Z,4.93
2023-05-04T04:46:57.201Z,4.92
2023-05-04T04:47:57.075Z,4.99
2023-05-04T04:48:56.972Z,5.02
2023-05-04T04:49:56.897Z,4.99
2023-05-04T04:50:56.809Z,4.99
2023-05-04T04:51:56.720Z,5.00
2023-05-04T04:52:56.645Z,5.11
2023-05-04T04:53:56.553Z,5.08
2023-05-04T04:54:56.482Z,5.11
2023-05-04T04:55:56.388Z,5.17
2023-05-04T04:56:56.313Z,5.13
2023-05-04T04:57:56.219Z,5.11
2023-05-04T04:58:56.129Z,5.14
2023-05-04T04:59:56.049Z,5.17
2023-05-04T05:00:56.013Z,5.14
2023-05-04T05:01:55.887Z,5.24
2023-05-04T05:02:55.923Z,5.24
2023-05-04T05:03:55.710Z,5.17
2023-05-04T05:04:55.683Z,5.28
2023-05-04T05:05:55.569Z,5.29
2023-05-04T05:06:55.474Z,5.36
2023-05-04T05:07:55.381Z,5.35
2023-05-04T05:08:55.305Z,5.39
2023-05-04T05:09:55.215Z,5.41
2023-05-04T05:10:55.124Z,5.52
2023-05-04T05:11:55.044Z,5.53
2023-05-04T05:12:55.003Z,5.56
2023-05-04T05:13:54.876Z,5.57
2023-05-04T05:14:54.796Z,5.60
2023-05-04T05:15:54.720Z,5.54
2023-05-04T05:16:54.694Z,5.65
2023-05-04T05:17:54.649Z,5.67
2023-05-04T05:18:54.470Z,5.70
2023-05-04T05:19:54.382Z,5.74
2023-05-04T05:20:54.288Z,5.77
2023-05-04T05:21:54.209Z,5.85
2023-05-04T05:22:54.122Z,5.89
2023-05-04T05:23:54.058Z,5.80
2023-05-04T05:24:53.953Z,5.99
2023-05-04T05:25:53.881Z,5.90
2023-05-04T05:26:53.789Z,6.07
2023-05-04T05:27:53.708Z,6.10
2023-05-04T05:28:53.621Z,6.15
2023-05-04T05:29:53.537Z,6.15
2023-05-04T05:30:53.499Z,6.22
2023-05-04T05:31:53.365Z,6.21
2023-05-04T05:32:53.338Z,6.30
2023-05-04T05:33:53.199Z,6.30
2023-05-04T05:34:53.117Z,6.36
2023-05-04T05:35:53.036Z,6.45
2023-05-04T05:36:52.956Z,6.45
2023-05-04T05:37:52.880Z,6.47
2023-05-04T05:38:52.789Z,6.45
2023-05-04T05:39:52.722Z,6.50
2023-05-04T05:40:52.623Z,6.52
2023-05-04T05:41:52.536Z,6.68
2023-05-04T05:42:52.453Z,6.65
2023-05-04T05:43:52.366Z,6.66
2023-05-04T05:44:52.284Z,6.75
2023-05-04T05:45:52.228Z,6.75
2023-05-04T05:46:52.135Z,6.81
2023-05-04T05:47:52.089Z,6.78
2023-05-04T05:48:51.954Z,6.78
2023-05-04T05:49:51.868Z,6.88
2023-05-04T05:50:51.780Z,6.94
2023-05-04T05:51:51.709Z,6.93
2023-05-04T05:52:51.617Z,6.91
2023-05-04T05:53:51.541Z,7.05
2023-05-04T05:54:51.454Z,7.09
2023-05-04T05:55:51.382Z,7.09
2023-05-04T05:56:51.283Z,7.19
2023-05-04T05:57:51.201Z,7.26
2023-05-04T05:58:51.116Z,7.24
2023-05-04T05:59:51.034Z,7.26
2023-05-04T06:00:50.953Z,7.26
2023-05-04T06:01:50.876Z,7.41
2023-05-04T06:02:50.852Z,7.39
2023-05-04T06:03:50.989Z,7.49
2023-05-04T06:04:50.682Z,7.53
2023-05-04T06:05:50.547Z,7.63
2023-05-04T06:06:50.455Z,7.60
2023-05-04T06:07:50.390Z,7.55
2023-05-04T06:08:50.297Z,7.63
2023-05-04T06:09:50.208Z,7.64
2023-05-04T06:10:50.128Z,7.76
2023-05-04T06:11:50.043Z,8.01
2023-05-04T06:12:49.987Z,7.91
2023-05-04T06:13:49.870Z,8.03
2023-05-04T06:14:49.801Z,8.07
2023-05-04T06:15:49.759Z,8.22
2023-05-04T06:16:49.668Z,8.24
2023-05-04T06:17:49.573Z,8.30
2023-05-04T06:18:49.460Z,8.36
2023-05-04T06:19:50.926Z,8.42
2023-05-04T06:20:49.296Z,8.52
2023-05-04T06:21:49.212Z,8.54
2023-05-04T06:22:49.138Z,8.70
2023-05-04T06:23:49.045Z,8.66
2023-05-04T06:24:48.984Z,8.68
2023-05-04T06:25:48.886Z,8.79
2023-05-04T06:26:48.794Z,8.87
2023-05-04T06:27:48.714Z,8.97
2023-05-04T06:28:48.644Z,9.03
2023-05-04T06:29:48.547Z,9.05
2023-05-04T06:30:48.517Z,9.16
2023-05-04T06:31:48.607Z,9.19
2023-05-04T06:32:48.335Z,9.14
2023-05-04T06:33:48.215Z,9.22
2023-05-04T06:34:48.139Z,9.29
2023-05-04T06:35:48.052Z,9.42
2023-05-04T06:36:47.980Z,9.37
2023-05-04T06:37:47.886Z,9.49
2023-05-04T06:38:47.805Z,9.52
2023-05-04T06:39:47.733Z,9.53
2023-05-04T06:40:47.637Z,9.61
2023-05-04T06:41:47.557Z,9.68
2023-05-04T06:42:47.485Z,9.70
2023-05-04T06:43:47.493Z,9.83
2023-05-04T06:44:47.310Z,9.85
2023-05-04T06:45:47.266Z,9.80
2023-05-04T06:46:47.155Z,10.01
2023-05-04T06:47:47.097Z,9.93
2023-05-04T06:48:46.981Z,10.10
2023-05-04T06:49:46.908Z,10.10
2023-05-04T06:50:46.831Z,10.13
2023-05-04T06:51:46.737Z,10.19
2023-05-04T06:52:46.694Z,10.25
2023-05-04T06:53:46.578Z,10.26
2023-05-04T06:54:46.498Z,10.34
2023-05-04T06:55:46.417Z,10.43
2023-05-04T06:56:46.335Z,10.51
2023-05-04T06:57:46.252Z,10.58
2023-05-04T06:58:46.176Z,10.56
2023-05-04T06:59:46.102Z,10.62
2023-05-04T07:00:46.053Z,10.75
2023-05-04T07:01:45.950Z,10.74
2023-05-04T07:02:45.875Z,10.80
2023-05-04T07:03:45.769Z,10.87
2023-05-04T07:04:45.682Z,11.02
2023-05-04T07:05:45.586Z,10.96
2023-05-04T07:06:45.511Z,11.13
2023-05-04T07:07:45.433Z,11.11
2023-05-04T07:08:45.347Z,11.26
2023-05-04T07:09:45.268Z,11.35
2023-05-04T07:10:45.201Z,11.32
2023-05-04T07:11:45.105Z,11.46
2023-05-04T07:12:45.065Z,11.54
2023-05-04T07:13:44.949Z,11.68
2023-05-04T07:14:44.867Z,11.78
2023-05-04T07:15:44.867Z,11.78
2023-05-04T07:16:44.824Z,11.74
2023-05-04T07:17:44.643Z,12.00
2023-05-04T07:18:44.537Z,12.06
2023-05-04T07:19:44.457Z,12.12
2023-05-04T07:20:44.380Z,12.18
2023-05-04T07:21:44.300Z,12.41
2023-05-04T07:22:44.207Z,12.45
2023-05-04T07:23:44.133Z,12.53
2023-05-04T07:24:44.044Z,12.70
2023-05-04T07:25:43.970Z,12.78
2023-05-04T07:26:43.888Z,12.94
2023-05-04T07:27:43.804Z,12.99
2023-05-04T07:28:43.866Z,13.17
2023-05-04T07:29:43.646Z,13.17
2023-05-04T07:30:43.563Z,13.33
2023-05-04T07:31:43.493Z,13.40
2023-05-04T07:32:43.407Z,13.59
2023-05-04T07:33:43.519Z,13.70
2023-05-04T07:34:46.365Z,13.76
2023-05-04T07:35:43.158Z,13.86
2023-05-04T07:36:43.573Z,13.98
2023-05-04T07:37:43.005Z,14.07
2023-05-04T07:38:42.919Z,14.17
2023-05-04T07:39:42.840Z,14.28
2023-05-04T07:40:42.769Z,14.24
2023-05-04T07:41:42.675Z,14.24
2023-05-04T07:42:42.599Z,14.38
2023-05-04T07:43:42.526Z,14.39
2023-05-04T07:44:42.448Z,14.41
2023-05-04T07:45:42.415Z,14.47
2023-05-04T07:46:42.323Z,14.47
2023-05-04T07:47:42.293Z,14.64
2023-05-04T07:48:42.119Z,14.65
2023-05-04T07:49:42.038Z,14.60
2023-05-04T07:50:41.966Z,14.69
2023-05-04T07:51:41.878Z,14.83
2023-05-04T07:52:41.800Z,14.85
2023-05-04T07:53:41.726Z,14.94
2023-05-04T07:54:41.652Z,14.95
2023-05-04T07:55:41.560Z,14.94
2023-05-04T07:56:41.490Z,14.91
2023-05-04T07:57:41.403Z,15.01
2023-05-04T07:58:41.335Z,15.20
2023-05-04T07:59:41.251Z,15.18
2023-05-04T08:00:41.164Z,15.24
2023-05-04T08:01:43.687Z,15.39
2023-05-04T08:02:41.121Z,15.43
2023-05-04T08:03:40.937Z,15.46
2023-05-04T08:04:40.851Z,15.53
2023-05-04T08:05:40.772Z,15.52
2023-05-04T08:06:40.690Z,15.45
2023-05-04T08:07:40.618Z,15.57
2023-05-04T08:08:40.541Z,15.45
2023-05-04T08:09:40.458Z,15.55
2023-05-04T08:10:40.372Z,15.57
2023-05-04T08:11:40.318Z,15.63
2023-05-04T08:12:40.287Z,15.75
2023-05-04T08:13:40.148Z,15.79
2023-05-04T08:14:40.077Z,15.88
2023-05-04T08:15:39.991Z,15.89
2023-05-04T08:16:39.902Z,15.88
2023-05-04T08:17:39.862Z,16.07
2023-05-04T08:18:39.747Z,16.07
2023-05-04T08:19:39.836Z,16.16
2023-05-04T08:20:39.600Z,16.23
2023-05-04T08:21:39.518Z,16.18
2023-05-04T08:22:39.433Z,16.30
2023-05-04T08:23:39.364Z,16.44
2023-05-04T08:24:39.279Z,16.45
2023-05-04T08:25:39.239Z,16.45
2023-05-04T08:26:39.133Z,16.35
2023-05-04T08:27:39.050Z,16.34
2023-05-04T08:28:38.985Z,16.34
2023-05-04T08:29:38.896Z,16.35
2023-05-04T08:30:38.812Z,16.37
2023-05-04T08:31:38.784Z,16.35
2023-05-04T08:32:38.694Z,16.50
2023-05-04T08:33:38.584Z,16.57
2023-05-04T08:34:38.517Z,16.62
2023-05-04T08:35:38.519Z,16.73
2023-05-04T08:36:38.340Z,16.67
2023-05-04T08:37:38.309Z,16.82
2023-05-04T08:38:38.190Z,16.98
2023-05-04T08:39:40.529Z,16.90
2023-05-04T08:40:38.033Z,16.99
2023-05-04T08:41:37.962Z,17.02
2023-05-04T08:42:37.881Z,17.11
2023-05-04T08:43:37.798Z,17.11
2023-05-04T08:44:37.741Z,17.23
2023-05-04T08:45:37.728Z,17.20
2023-05-04T08:46:37.566Z,17.20
2023-05-04T08:47:37.532Z,17.26
2023-05-04T08:48:37.417Z,17.18
2023-05-04T08:49:37.335Z,17.26
2023-05-04T08:50:37.265Z,17.46
2023-05-04T08:51:37.237Z,17.48
2023-05-04T08:52:37.102Z,17.43
2023-05-04T08:53:37.040Z,17.53
2023-05-04T08:54:36.957Z,17.64
2023-05-04T08:55:36.878Z,17.70
2023-05-04T08:56:36.795Z,17.76
2023-05-04T08:57:36.721Z,17.70
2023-05-04T08:58:36.641Z,17.55
2023-05-04T08:59:36.564Z,17.51
2023-05-04T09:00:36.535Z,17.40
2023-05-04T09:01:36.422Z,17.66
2023-05-04T09:02:36.383Z,17.57
2023-05-04T09:03:36.403Z,17.64
2023-05-04T09:04:36.169Z,17.53
2023-05-04T09:05:36.102Z,17.47
2023-05-04T09:06:36.018Z,17.53
2023-05-04T09:07:35.967Z,17.55
2023-05-04T09:08:35.862Z,17.66
2023-05-04T09:09:35.785Z,17.67
2023-05-04T09:10:35.713Z,17.69
2023-05-04T09:11:35.643Z,17.79
2023-05-04T09:12:35.563Z,17.92
2023-05-04T09:13:35.500Z,17.91
2023-05-04T09:14:35.415Z,17.82
2023-05-04T09:15:35.354Z,17.89
2023-05-04T09:16:35.298Z,17.79
2023-05-04T09:17:36.410Z,17.92
2023-05-04T09:18:35.129Z,17.84
2023-05-04T09:19:35.017Z,17.94
2023-05-04T09:20:34.957Z,18.02
2023-05-04T09:21:34.876Z,18.11
2023-05-04T09:22:34.793Z,18.10
2023-05-04T09:23:34.826Z,18.04
2023-05-04T09:24:34.640Z,18.11
2023-05-04T09:25:34.555Z,18.02
2023-05-04T09:26:34.487Z,18.03
2023-05-04T09:27:34.402Z,18.07
2023-05-04T09:28:34.333Z,18.06
2023-05-04T09:29:34.250Z,18.07
2023-05-04T09:30:34.188Z,18.19
2023-05-04T09:31:34.254Z,18.28
2023-05-04T09:32:34.044Z,18.29
2023-05-04T09:33:33.953Z,18.43
2023-05-04T09:34:33.882Z,18.50
2023-05-04T09:35:34.552Z,18.58
2023-05-04T09:36:33.730Z,18.65
2023-05-04T09:37:33.642Z,18.65
2023-05-04T09:38:33.574Z,18.59
2023-05-04T09:39:33.552Z,18.40
2023-05-04T09:40:33.409Z,18.31
2023-05-04T09:41:33.346Z,18.27
2023-05-04T09:42:33.260Z,18.39
2023-05-04T09:43:33.179Z,18.37
2023-05-04T09:44:33.101Z,18.44
2023-05-04T09:45:33.029Z,18.34
2023-05-04T09:46:34.059Z,18.35
2023-05-04T09:47:32.910Z,18.19
2023-05-04T09:48:32.819Z,18.25
2023-05-04T09:49:32.780Z,18.39
2023-05-04T09:50:32.645Z,18.55
2023-05-04T09:51:32.576Z,18.61
2023-05-04T09:52:32.496Z,18.64
2023-05-04T09:53:32.423Z,18.64
2023-05-04T09:54:32.346Z,18.64
2023-05-04T09:55:32.354Z,18.68
2023-05-04T09:56:32.191Z,18.68
2023-05-04T09:57:32.120Z,18.76
2023-05-04T09:58:32.058Z,18.73
2023-05-04T09:59:31.961Z,18.87
2023-05-04T10:00:31.887Z,18.89
2023-05-04T10:01:31.838Z,18.74
2023-05-04T10:02:31.813Z,18.86
2023-05-04T10:03:31.677Z,18.82
2023-05-04T10:04:31.578Z,18.77
2023-05-04T10:05:31.548Z,18.80
2023-05-04T10:06:31.422Z,19.01
2023-05-04T10:07:31.361Z,19.14
2023-05-04T10:08:31.273Z,19.21
2023-05-04T10:09:31.202Z,19.25
2023-05-04T10:10:31.128Z,19.13
2023-05-04T10:11:31.072Z,19.21
2023-05-04T10:12:31.031Z,19.20
2023-05-04T10:13:30.980Z,19.14
2023-05-04T10:14:30.850Z,19.17
2023-05-04T10:15:30.742Z,18.98
2023-05-04T10:16:30.830Z,18.94
2023-05-04T10:17:30.604Z,18.92
2023-05-04T10:18:30.513Z,18.92
2023-05-04T10:19:30.435Z,18.98
2023-05-04T10:20:30.367Z,19.02
2023-05-04T10:21:30.305Z,19.01
2023-05-04T10:22:30.216Z,18.94
2023-05-04T10:23:30.141Z,19.02
2023-05-04T10:24:30.064Z,19.02
2023-05-04T10:25:30.009Z,19.14
2023-05-04T10:26:29.924Z,19.28
2023-05-04T10:27:29.838Z,19.35
2023-05-04T10:28:29.760Z,19.53
2023-05-04T10:29:29.693Z,19.45
2023-05-04T10:30:29.620Z,19.42
2023-05-04T10:31:29.582Z,19.54
2023-05-04T10:32:29.527Z,19.48
2023-05-04T10:33:29.404Z,19.58
2023-05-04T10:34:29.305Z,19.65
2023-05-04T10:35:29.242Z,19.58
2023-05-04T10:36:29.155Z,19.61
2023-05-04T10:37:29.090Z,19.72
2023-05-04T10:38:29.001Z,19.63
2023-05-04T10:39:28.932Z,19.71
2023-05-04T10:40:28.858Z,19.73
2023-05-04T10:41:28.783Z,19.71
2023-05-04T10:42:28.703Z,19.71
2023-05-04T10:43:28.767Z,19.68
2023-05-04T10:44:28.552Z,19.73
2023-05-04T10:45:28.519Z,19.91
2023-05-04T10:46:28.398Z,19.88
2023-05-04T10:47:28.380Z,19.97
2023-05-04T10:48:28.251Z,19.98
2023-05-04T10:49:28.182Z,20.01
2023-05-04T10:50:28.108Z,20.06
2023-05-04T10:51:32.946Z,19.98
2023-05-04T10:52:27.954Z,19.95
2023-05-04T10:53:27.878Z,19.87
2023-05-04T10:54:27.796Z,19.86
2023-05-04T10:55:27.743Z,19.93
2023-05-04T10:56:27.665Z,20.06
2023-05-04T10:57:27.574Z,19.98
2023-05-04T10:58:27.495Z,20.10
2023-05-04T10:59:27.461Z,20.15
2023-05-04T11:00:27.346Z,20.26
2023-05-04T11:01:27.347Z,20.18
2023-05-04T11:02:27.280Z,20.23
2023-05-04T11:03:27.247Z,20.27
2023-05-04T11:04:27.049Z,20.43
2023-05-04T11:05:26.983Z,20.57
2023-05-04T11:06:26.908Z,20.61
2023-05-04T11:07:26.845Z,20.47
2023-05-04T11:08:26.773Z,20.50
2023-05-04T11:09:26.679Z,20.42
2023-05-04T11:10:26.610Z,20.47
2023-05-04T11:11:26.537Z,20.57
2023-05-04T11:12:26.450Z,20.79
2023-05-04T11:13:26.383Z,20.79
2023-05-04T11:14:26.297Z,20.93
2023-05-04T11:15:26.368Z,20.89
2023-05-04T11:16:26.225Z,20.83
2023-05-04T11:17:28.594Z,20.80
2023-05-04T11:18:26.003Z,20.80
2023-05-04T11:19:25.937Z,20.86
2023-05-04T11:20:25.866Z,20.65
2023-05-04T11:21:25.785Z,20.68
2023-05-04T11:22:25.704Z,20.75
2023-05-04T11:23:25.638Z,20.87
2023-05-04T11:24:25.561Z,20.86
2023-05-04T11:25:25.491Z,20.79
2023-05-04T11:26:25.411Z,20.71
2023-05-04T11:27:25.332Z,20.64
2023-05-04T11:28:25.254Z,20.56
2023-05-04T11:29:25.182Z,20.66
2023-05-04T11:30:25.120Z,20.56
2023-05-04T11:31:25.171Z,20.53
2023-05-04T11:32:24.986Z,20.51
2023-05-04T11:33:24.889Z,20.62
2023-05-04T11:34:24.816Z,20.50
2023-05-04T11:35:24.751Z,20.64
2023-05-04T11:36:24.666Z,20.65
2023-05-04T11:37:24.592Z,20.69
2023-05-04T11:38:24.512Z,20.65
2023-05-04T11:39:24.445Z,20.65
2023-05-04T11:40:24.366Z,20.79
2023-05-04T11:41:24.312Z,20.83
2023-05-04T11:42:24.277Z,20.90
2023-05-04T11:43:24.143Z,20.83
2023-05-04T11:44:24.076Z,20.98
2023-05-04T11:45:24.005Z,20.86
2023-05-04T11:46:24.040Z,20.68
2023-05-04T11:47:23.962Z,20.65
2023-05-04T11:48:23.775Z,20.66
2023-05-04T11:49:23.698Z,20.72
2023-05-04T11:50:23.628Z,20.76
2023-05-04T11:51:23.558Z,20.64
2023-05-04T11:52:23.472Z,20.71
2023-05-04T11:53:23.412Z,20.69
2023-05-04T11:54:23.331Z,20.66
2023-05-04T11:55:23.252Z,20.72
2023-05-04T11:56:23.182Z,20.76
2023-05-04T11:57:23.118Z,20.83
2023-05-04T11:58:23.034Z,20.72
2023-05-04T11:59:22.955Z,20.62
2023-05-04T12:00:22.887Z,20.50
2023-05-04T12:01:22.801Z,20.50
2023-05-04T12:02:22.742Z,20.54
2023-05-04T12:03:24.448Z,20.69
2023-05-04T12:04:22.607Z,20.83
2023-05-04T12:05:22.565Z,20.91
2023-05-04T12:06:22.433Z,21.06
2023-05-04T12:07:22.357Z,21.02
2023-05-04T12:08:22.283Z,21.02
2023-05-04T12:09:22.221Z,21.02
2023-05-04T12:10:22.134Z,21.05
2023-05-04T12:11:22.063Z,21.12
2023-05-04T12:12:21.994Z,21.30
2023-05-04T12:13:21.943Z,21.33
2023-05-04T12:14:21.840Z,21.45
2023-05-04T12:15:21.771Z,21.39
2023-05-04T12:16:21.707Z,21.56
2023-05-04T12:17:21.619Z,21.51
2023-05-04T12:18:21.541Z,21.57
2023-05-04T12:19:21.481Z,21.57
2023-05-04T12:20:21.404Z,21.49
2023-05-04T12:21:21.344Z,21.48
2023-05-04T12:22:21.245Z,21.61
2023-05-04T12:23:21.170Z,21.61
2023-05-04T12:24:21.102Z,21.59
2023-05-04T12:25:21.038Z,21.53
2023-05-04T12:26:20.959Z,21.67
2023-05-04T12:27:20.875Z,21.74
2023-05-04T12:28:20.822Z,21.82
2023-05-04T12:29:20.734Z,21.74
2023-05-04T12:30:20.656Z,21.70
2023-05-04T12:31:21.310Z,21.66
2023-05-04T12:32:20.515Z,21.69
2023-05-04T12:33:20.435Z,21.69
2023-05-04T12:34:20.360Z,21.67
2023-05-04T12:35:20.304Z,21.74
2023-05-04T12:36:20.213Z,21.75
2023-05-04T12:37:20.147Z,21.72
2023-05-04T12:38:20.071Z,21.67
2023-05-04T12:39:19.995Z,21.54
2023-05-04T12:40:28.318Z,21.46
2023-05-04T12:41:19.847Z,21.38
2023-05-04T12:42:19.777Z,21.45
2023-05-04T12:43:20.904Z,21.67
2023-05-04T12:44:19.627Z,21.67
2023-05-04T12:45:19.548Z,21.76
2023-05-04T12:46:19.489Z,21.84
2023-05-04T12:47:19.405Z,21.92
2023-05-04T12:48:19.337Z,21.92
2023-05-04T12:49:19.254Z,21.98
2023-05-04T12:50:19.186Z,22.04
2023-05-04T12:51:19.108Z,22.10
2023-05-04T12:52:19.039Z,21.98
2023-05-04T12:53:18.977Z,21.94
2023-05-04T12:54:18.897Z,21.91
2023-05-04T12:55:18.813Z,21.89
2023-05-04T12:56:18.757Z,21.97
2023-05-04T12:57:18.667Z,22.07
2023-05-04T12:58:18.590Z,22.01
2023-05-04T12:59:18.532Z,22.02
2023-05-04T13:00:18.462Z,22.13
2023-05-04T13:01:18.416Z,22.17
2023-05-04T13:02:18.347Z,22.24
2023-05-04T13:03:18.560Z,22.26
2023-05-04T13:04:18.155Z,22.35